sensor_id;sensor_type;location;lat;lon;timestamp;temperature;humidity
18191;DHT22;47004;51.366;12.348;2022-11-20T00:01:32;-3.90;99.90
18191;DHT22;47004;51.366;12.348;2022-11-20T00:03:35;-3.90;99.90
18191;DHT22;47004;51.366;12.348;2022-11-20T00:05:37;-3.90;99.90
18191;DHT22;47004;51.366;12.348;2022-11-20T00:07:39;-3.90;99.90
18191;DHT22;47004;51.366;12.348;2022-11-20T00:09:41;-3.90;99.90
18191;DHT22;47004;51.366;12.348;2022-11-20T00:11:43;-4.00;99.90
18191;DHT22;47004;51.366;12.348;2022-11-20T00:13:47;-3.90;99.90
18191;DHT22;47004;51.366;12.348;2022-11-20T00:15:55;-4.00;99.90
18191;DHT22;47004;51.366;12.348;2022-11-20T00:17:58;-4.00;99.90
18191;DHT22;47004;51.366;12.348;2022-11-20T00:20:01;-4.00;99.90
18191;DHT22;47004;51.366;12.348;2022-11-20T00:22:03;-4.00;99.90
18191;DHT22;47004;51.366;12.348;2022-11-20T00:24:08;-4.00;99.90
18191;DHT22;47004;51.366;12.348;2022-11-20T00:26:16;-4.00;99.90
18191;DHT22;47004;51.366;12.348;2022-11-20T00:28:18;-4.00;99.90
18191;DHT22;47004;51.366;12.348;2022-11-20T00:30:20;-4.10;99.90
18191;DHT22;47004;51.366;12.348;2022-11-20T00:32:22;-4.00;99.90
18191;DHT22;47004;51.366;12.348;2022-11-20T00:34:24;-4.10;99.90
18191;DHT22;47004;51.366;12.348;2022-11-20T00:36:31;-4.10;99.90
18191;DHT22;47004;51.366;12.348;2022-11-20T00:38:34;-4.10;99.90
18191;DHT22;47004;51.366;12.348;2022-11-20T00:40:36;-4.10;99.90
18191;DHT22;47004;51.366;12.348;2022-11-20T00:42:38;-4.10;99.90
18191;DHT22;47004;51.366;12.348;2022-11-20T00:44:40;-4.10;99.90
18191;DHT22;47004;51.366;12.348;2022-11-20T00:46:42;-4.20;99.90
18191;DHT22;47004;51.366;12.348;2022-11-20T00:48:44;-4.20;99.90
18191;DHT22;47004;51.366;12.348;2022-11-20T00:50:49;-4.20;99.90
18191;DHT22;47004;51.366;12.348;2022-11-20T00:52:52;-4.20;99.90
18191;DHT22;47004;51.366;12.348;2022-11-20T00:54:54;-4.20;99.90
18191;DHT22;47004;51.366;12.348;2022-11-20T00:56:57;-4.20;99.90
18191;DHT22;47004;51.366;12.348;2022-11-20T00:59:01;-4.30;99.90
18191;DHT22;47004;51.366;12.348;2022-11-20T01:01:05;-4.20;99.90
18191;DHT22;47004;51.366;12.348;2022-11-20T01:03:07;-4.30;99.90
18191;DHT22;47004;51.366;12.348;2022-11-20T01:05:09;-4.20;99.90
18191;DHT22;47004;51.366;12.348;2022-11-20T01:07:11;-4.30;99.90
18191;DHT22;47004;51.366;12.348;2022-11-20T01:09:14;-4.30;99.90
18191;DHT22;47004;51.366;12.348;2022-11-20T01:11:18;-4.30;99.90
18191;DHT22;47004;51.366;12.348;2022-11-20T01:13:20;-4.30;99.90
18191;DHT22;47004;51.366;12.348;2022-11-20T01:15:41;-4.30;99.90
18191;DHT22;47004;51.366;12.348;2022-11-20T01:17:43;-4.40;99.90
18191;DHT22;47004;51.366;12.348;2022-11-20T01:19:48;-4.40;99.90
18191;DHT22;47004;51.366;12.348;2022-11-20T01:21:51;-4.30;99.90
18191;DHT22;47004;51.366;12.348;2022-11-20T01:23:54;-4.40;99.90
18191;DHT22;47004;51.366;12.348;2022-11-20T01:26:02;-4.40;99.90
18191;DHT22;47004;51.366;12.348;2022-11-20T01:28:04;-4.40;99.90
18191;DHT22;47004;51.366;12.348;2022-11-20T01:30:07;-4.50;99.90
18191;DHT22;47004;51.366;12.348;2022-11-20T01:32:09;-4.40;99.90
18191;DHT22;47004;51.366;12.348;2022-11-20T01:34:12;-4.40;99.90
18191;DHT22;47004;51.366;12.348;2022-11-20T01:36:16;-4.40;99.90
18191;DHT22;47004;51.366;12.348;2022-11-20T01:38:19;-4.20;99.90
18191;DHT22;47004;51.366;12.348;2022-11-20T01:40:23;-4.40;99.90
18191;DHT22;47004;51.366;12.348;2022-11-20T01:42:26;-4.40;99.90
18191;DHT22;47004;51.366;12.348;2022-11-20T01:44:50;-4.40;99.90
18191;DHT22;47004;51.366;12.348;2022-11-20T01:46:56;-4.40;99.90
18191;DHT22;47004;51.366;12.348;2022-11-20T01:49:02;-4.50;99.90
18191;DHT22;47004;51.366;12.348;2022-11-20T01:51:10;-4.50;99.90
18191;DHT22;47004;51.366;12.348;2022-11-20T01:53:17;-4.50;99.90
18191;DHT22;47004;51.366;12.348;2022-11-20T01:55:23;-4.50;99.90
18191;DHT22;47004;51.366;12.348;2022-11-20T01:57:30;-4.50;99.90
18191;DHT22;47004;51.366;12.348;2022-11-20T01:59:33;-4.60;99.90
18191;DHT22;47004;51.366;12.348;2022-11-20T02:01:37;-4.60;99.90
18191;DHT22;47004;51.366;12.348;2022-11-20T02:03:40;-4.60;99.90
18191;DHT22;47004;51.366;12.348;2022-11-20T02:05:46;-4.60;99.90
18191;DHT22;47004;51.366;12.348;2022-11-20T02:07:49;-4.60;99.90
18191;DHT22;47004;51.366;12.348;2022-11-20T02:09:52;-4.60;99.90
18191;DHT22;47004;51.366;12.348;2022-11-20T02:11:54;-4.60;99.90
18191;DHT22;47004;51.366;12.348;2022-11-20T02:13:58;-4.50;99.90
18191;DHT22;47004;51.366;12.348;2022-11-20T02:15:59;-4.50;99.90
18191;DHT22;47004;51.366;12.348;2022-11-20T02:18:01;-4.50;99.90
18191;DHT22;47004;51.366;12.348;2022-11-20T02:20:04;-4.60;99.90
18191;DHT22;47004;51.366;12.348;2022-11-20T02:22:10;-4.60;99.90
18191;DHT22;47004;51.366;12.348;2022-11-20T02:24:15;-4.60;99.90
18191;DHT22;47004;51.366;12.348;2022-11-20T02:26:20;-4.60;99.90
18191;DHT22;47004;51.366;12.348;2022-11-20T02:28:22;-4.60;99.90
18191;DHT22;47004;51.366;12.348;2022-11-20T02:30:24;-4.60;99.90
18191;DHT22;47004;51.366;12.348;2022-11-20T02:32:28;-4.60;99.90
18191;DHT22;47004;51.366;12.348;2022-11-20T02:34:31;-4.70;99.90
18191;DHT22;47004;51.366;12.348;2022-11-20T02:36:35;-4.70;99.90
18191;DHT22;47004;51.366;12.348;2022-11-20T02:38:38;-4.70;99.90
18191;DHT22;47004;51.366;12.348;2022-11-20T02:40:41;-4.70;99.90
18191;DHT22;47004;51.366;12.348;2022-11-20T02:42:43;-4.80;99.90
18191;DHT22;47004;51.366;12.348;2022-11-20T02:44:45;-4.70;99.90
18191;DHT22;47004;51.366;12.348;2022-11-20T02:46:47;-4.70;99.90
18191;DHT22;47004;51.366;12.348;2022-11-20T02:48:49;-4.70;99.90
18191;DHT22;47004;51.366;12.348;2022-11-20T02:50:51;-4.70;99.90
18191;DHT22;47004;51.366;12.348;2022-11-20T02:52:55;-4.70;99.90
18191;DHT22;47004;51.366;12.348;2022-11-20T02:54:57;-4.70;99.90
18191;DHT22;47004;51.366;12.348;2022-11-20T02:57:00;-4.70;99.90
18191;DHT22;47004;51.366;12.348;2022-11-20T02:59:02;-4.70;99.90
18191;DHT22;47004;51.366;12.348;2022-11-20T03:01:05;-4.80;99.90
18191;DHT22;47004;51.366;12.348;2022-11-20T03:03:06;-4.80;99.90
18191;DHT22;47004;51.366;12.348;2022-11-20T03:05:10;-4.80;99.90
18191;DHT22;47004;51.366;12.348;2022-11-20T03:07:12;-4.80;99.90
18191;DHT22;47004;51.366;12.348;2022-11-20T03:09:14;-4.70;99.90
18191;DHT22;47004;51.366;12.348;2022-11-20T03:11:16;-4.80;99.90
18191;DHT22;47004;51.366;12.348;2022-11-20T03:13:19;-4.80;99.90
18191;DHT22;47004;51.366;12.348;2022-11-20T03:15:21;-4.80;99.90
18191;DHT22;47004;51.366;12.348;2022-11-20T03:17:23;-4.80;99.90
18191;DHT22;47004;51.366;12.348;2022-11-20T03:19:25;-4.90;99.90
18191;DHT22;47004;51.366;12.348;2022-11-20T03:21:27;-4.90;99.90
18191;DHT22;47004;51.366;12.348;2022-11-20T03:23:30;-4.90;99.90
18191;DHT22;47004;51.366;12.348;2022-11-20T03:25:32;-4.90;99.90
18191;DHT22;47004;51.366;12.348;2022-11-20T03:27:35;-4.80;99.90
18191;DHT22;47004;51.366;12.348;2022-11-20T03:29:38;-4.80;99.90
18191;DHT22;47004;51.366;12.348;2022-11-20T03:31:40;-4.80;99.90
18191;DHT22;47004;51.366;12.348;2022-11-20T03:33:43;-4.80;99.90
18191;DHT22;47004;51.366;12.348;2022-11-20T03:35:45;-4.90;99.90
18191;DHT22;47004;51.366;12.348;2022-11-20T03:37:47;-4.80;99.90
18191;DHT22;47004;51.366;12.348;2022-11-20T03:39:49;-4.90;99.90
18191;DHT22;47004;51.366;12.348;2022-11-20T03:41:51;-4.90;99.90
18191;DHT22;47004;51.366;12.348;2022-11-20T03:43:54;-4.90;99.90
18191;DHT22;47004;51.366;12.348;2022-11-20T03:45:58;-4.90;99.90
18191;DHT22;47004;51.366;12.348;2022-11-20T03:48:00;-4.90;99.90
18191;DHT22;47004;51.366;12.348;2022-11-20T03:50:02;-4.90;99.90
18191;DHT22;47004;51.366;12.348;2022-11-20T03:52:04;-4.90;99.90
18191;DHT22;47004;51.366;12.348;2022-11-20T03:54:07;-4.90;99.90
18191;DHT22;47004;51.366;12.348;2022-11-20T03:56:11;-4.90;99.90
18191;DHT22;47004;51.366;12.348;2022-11-20T03:58:13;-5.00;99.90
18191;DHT22;47004;51.366;12.348;2022-11-20T04:00:15;-4.90;99.90
18191;DHT22;47004;51.366;12.348;2022-11-20T04:02:18;-5.00;99.90
18191;DHT22;47004;51.366;12.348;2022-11-20T04:04:20;-5.00;99.90
18191;DHT22;47004;51.366;12.348;2022-11-20T04:06:24;-5.00;99.90
18191;DHT22;47004;51.366;12.348;2022-11-20T04:08:26;-5.00;99.90
18191;DHT22;47004;51.366;12.348;2022-11-20T04:10:29;-5.00;99.90
18191;DHT22;47004;51.366;12.348;2022-11-20T04:12:32;-5.00;99.90
18191;DHT22;47004;51.366;12.348;2022-11-20T04:14:34;-5.00;99.90
18191;DHT22;47004;51.366;12.348;2022-11-20T04:16:37;-5.10;99.90
18191;DHT22;47004;51.366;12.348;2022-11-20T04:18:40;-5.10;99.90
18191;DHT22;47004;51.366;12.348;2022-11-20T04:20:42;-5.10;99.90
18191;DHT22;47004;51.366;12.348;2022-11-20T04:22:45;-5.10;99.90
18191;DHT22;47004;51.366;12.348;2022-11-20T04:24:47;-5.10;99.90
18191;DHT22;47004;51.366;12.348;2022-11-20T04:26:49;-5.10;99.90
18191;DHT22;47004;51.366;12.348;2022-11-20T04:28:51;-5.10;99.90
18191;DHT22;47004;51.366;12.348;2022-11-20T04:30:53;-5.10;99.90
18191;DHT22;47004;51.366;12.348;2022-11-20T04:32:55;-5.10;99.90
18191;DHT22;47004;51.366;12.348;2022-11-20T04:34:59;-5.10;99.90
18191;DHT22;47004;51.366;12.348;2022-11-20T04:37:01;-5.10;99.90
18191;DHT22;47004;51.366;12.348;2022-11-20T04:39:04;-5.10;99.90
18191;DHT22;47004;51.366;12.348;2022-11-20T04:41:11;-5.20;99.90
18191;DHT22;47004;51.366;12.348;2022-11-20T04:43:15;-5.10;99.90
18191;DHT22;47004;51.366;12.348;2022-11-20T04:45:17;-5.10;99.90
18191;DHT22;47004;51.366;12.348;2022-11-20T04:47:20;-5.10;99.90
18191;DHT22;47004;51.366;12.348;2022-11-20T04:49:22;-5.10;99.90
18191;DHT22;47004;51.366;12.348;2022-11-20T04:51:26;-5.10;99.90
18191;DHT22;47004;51.366;12.348;2022-11-20T04:53:28;-5.10;99.90
18191;DHT22;47004;51.366;12.348;2022-11-20T04:55:30;-5.10;99.90
18191;DHT22;47004;51.366;12.348;2022-11-20T04:57:31;-5.10;99.90
18191;DHT22;47004;51.366;12.348;2022-11-20T04:59:36;-5.10;99.90
18191;DHT22;47004;51.366;12.348;2022-11-20T05:01:38;-5.10;99.90
18191;DHT22;47004;51.366;12.348;2022-11-20T05:03:40;-5.10;99.90
18191;DHT22;47004;51.366;12.348;2022-11-20T05:05:41;-5.10;99.90
18191;DHT22;47004;51.366;12.348;2022-11-20T05:07:45;-5.20;99.90
18191;DHT22;47004;51.366;12.348;2022-11-20T05:09:47;-5.20;99.90
18191;DHT22;47004;51.366;12.348;2022-11-20T05:11:48;-5.20;99.90
18191;DHT22;47004;51.366;12.348;2022-11-20T05:13:51;-5.10;99.90
18191;DHT22;47004;51.366;12.348;2022-11-20T05:15:53;-5.20;99.90
18191;DHT22;47004;51.366;12.348;2022-11-20T05:17:55;-5.10;99.90
18191;DHT22;47004;51.366;12.348;2022-11-20T05:19:57;-5.20;99.90
18191;DHT22;47004;51.366;12.348;2022-11-20T05:21:59;-5.20;99.90
18191;DHT22;47004;51.366;12.348;2022-11-20T05:24:02;-5.10;99.90
18191;DHT22;47004;51.366;12.348;2022-11-20T05:26:06;-5.20;99.90
18191;DHT22;47004;51.366;12.348;2022-11-20T05:28:08;-5.10;99.90
18191;DHT22;47004;51.366;12.348;2022-11-20T05:30:11;-5.10;99.90
18191;DHT22;47004;51.366;12.348;2022-11-20T05:32:13;-5.10;99.90
18191;DHT22;47004;51.366;12.348;2022-11-20T05:34:15;-5.10;99.90
18191;DHT22;47004;51.366;12.348;2022-11-20T05:36:17;-5.20;99.90
18191;DHT22;47004;51.366;12.348;2022-11-20T05:38:19;-5.20;99.90
18191;DHT22;47004;51.366;12.348;2022-11-20T05:40:22;-5.20;99.90
18191;DHT22;47004;51.366;12.348;2022-11-20T05:42:24;-5.20;99.90
18191;DHT22;47004;51.366;12.348;2022-11-20T05:44:32;-5.20;99.90
18191;DHT22;47004;51.366;12.348;2022-11-20T05:46:34;-5.20;99.90
18191;DHT22;47004;51.366;12.348;2022-11-20T05:48:37;-5.20;99.90
18191;DHT22;47004;51.366;12.348;2022-11-20T05:50:39;-5.20;99.90
18191;DHT22;47004;51.366;12.348;2022-11-20T05:52:41;-5.20;99.90
18191;DHT22;47004;51.366;12.348;2022-11-20T05:54:43;-5.20;99.90
18191;DHT22;47004;51.366;12.348;2022-11-20T05:56:46;-5.20;99.90
18191;DHT22;47004;51.366;12.348;2022-11-20T05:58:51;-5.30;99.90
18191;DHT22;47004;51.366;12.348;2022-11-20T06:00:53;-5.30;99.90
18191;DHT22;47004;51.366;12.348;2022-11-20T06:02:55;-5.30;99.90
18191;DHT22;47004;51.366;12.348;2022-11-20T06:04:56;-5.30;99.90
18191;DHT22;47004;51.366;12.348;2022-11-20T06:06:58;-5.30;99.90
18191;DHT22;47004;51.366;12.348;2022-11-20T06:09:00;-5.30;99.90
18191;DHT22;47004;51.366;12.348;2022-11-20T06:11:06;-5.30;99.90
18191;DHT22;47004;51.366;12.348;2022-11-20T06:13:10;-5.30;99.90
18191;DHT22;47004;51.366;12.348;2022-11-20T06:15:12;-5.30;99.90
18191;DHT22;47004;51.366;12.348;2022-11-20T06:17:14;-5.30;99.90
18191;DHT22;47004;51.366;12.348;2022-11-20T06:19:16;-5.30;99.90
18191;DHT22;47004;51.366;12.348;2022-11-20T06:21:19;-5.40;99.90
18191;DHT22;47004;51.366;12.348;2022-11-20T06:23:21;-5.40;99.90
18191;DHT22;47004;51.366;12.348;2022-11-20T06:25:23;-5.40;99.90
18191;DHT22;47004;51.366;12.348;2022-11-20T06:27:28;-5.40;99.90
18191;DHT22;47004;51.366;12.348;2022-11-20T06:29:31;-5.40;99.90
18191;DHT22;47004;51.366;12.348;2022-11-20T06:31:33;-5.40;99.90
18191;DHT22;47004;51.366;12.348;2022-11-20T06:33:38;-5.40;99.90
18191;DHT22;47004;51.366;12.348;2022-11-20T06:35:40;-5.40;99.90
18191;DHT22;47004;51.366;12.348;2022-11-20T06:37:42;-5.50;99.90
18191;DHT22;47004;51.366;12.348;2022-11-20T06:39:44;-5.40;99.90
18191;DHT22;47004;51.366;12.348;2022-11-20T06:41:46;-5.50;99.90
18191;DHT22;47004;51.366;12.348;2022-11-20T06:43:49;-5.50;99.90
18191;DHT22;47004;51.366;12.348;2022-11-20T06:45:53;-5.50;99.90
18191;DHT22;47004;51.366;12.348;2022-11-20T06:47:57;-5.40;99.90
18191;DHT22;47004;51.366;12.348;2022-11-20T06:49:59;-5.40;99.90
18191;DHT22;47004;51.366;12.348;2022-11-20T06:52:01;-5.40;99.90
18191;DHT22;47004;51.366;12.348;2022-11-20T06:54:03;-5.50;99.90
18191;DHT22;47004;51.366;12.348;2022-11-20T06:56:06;-5.50;99.90
18191;DHT22;47004;51.366;12.348;2022-11-20T06:58:08;-5.50;99.90
18191;DHT22;47004;51.366;12.348;2022-11-20T07:00:13;-5.50;99.90
18191;DHT22;47004;51.366;12.348;2022-11-20T07:02:17;-5.50;99.90
18191;DHT22;47004;51.366;12.348;2022-11-20T07:04:19;-5.50;99.90
18191;DHT22;47004;51.366;12.348;2022-11-20T07:06:23;-5.50;99.90
18191;DHT22;47004;51.366;12.348;2022-11-20T07:08:25;-5.50;99.90
18191;DHT22;47004;51.366;12.348;2022-11-20T07:10:27;-5.50;99.90
18191;DHT22;47004;51.366;12.348;2022-11-20T07:12:29;-5.50;99.90
18191;DHT22;47004;51.366;12.348;2022-11-20T07:14:31;-5.50;99.90
18191;DHT22;47004;51.366;12.348;2022-11-20T07:16:33;-5.50;99.90
18191;DHT22;47004;51.366;12.348;2022-11-20T07:18:36;-5.50;99.90
18191;DHT22;47004;51.366;12.348;2022-11-20T07:20:38;-5.40;99.90
18191;DHT22;47004;51.366;12.348;2022-11-20T07:22:40;-5.40;99.90
18191;DHT22;47004;51.366;12.348;2022-11-20T07:24:43;-5.40;99.90
18191;DHT22;47004;51.366;12.348;2022-11-20T07:26:47;-5.40;99.90
18191;DHT22;47004;51.366;12.348;2022-11-20T07:28:50;-5.40;99.90
18191;DHT22;47004;51.366;12.348;2022-11-20T07:30:52;-5.40;99.90
18191;DHT22;47004;51.366;12.348;2022-11-20T07:32:55;-5.40;99.90
18191;DHT22;47004;51.366;12.348;2022-11-20T07:34:59;-5.40;99.90
18191;DHT22;47004;51.366;12.348;2022-11-20T07:37:00;-5.40;99.90
18191;DHT22;47004;51.366;12.348;2022-11-20T07:39:03;-5.40;99.90
18191;DHT22;47004;51.366;12.348;2022-11-20T07:41:08;-5.40;99.90
18191;DHT22;47004;51.366;12.348;2022-11-20T07:43:12;-4.20;99.90
18191;DHT22;47004;51.366;12.348;2022-11-20T07:45:14;-5.10;99.90
18191;DHT22;47004;51.366;12.348;2022-11-20T07:47:16;-5.30;99.90
18191;DHT22;47004;51.366;12.348;2022-11-20T07:49:18;-5.30;99.90
18191;DHT22;47004;51.366;12.348;2022-11-20T07:51:22;-5.30;99.90
18191;DHT22;47004;51.366;12.348;2022-11-20T07:53:24;-5.40;99.90
18191;DHT22;47004;51.366;12.348;2022-11-20T07:55:29;-5.30;99.90
18191;DHT22;47004;51.366;12.348;2022-11-20T07:57:31;-4.80;99.90
18191;DHT22;47004;51.366;12.348;2022-11-20T07:59:35;-5.20;99.90
18191;DHT22;47004;51.366;12.348;2022-11-20T08:01:37;-4.90;99.90
18191;DHT22;47004;51.366;12.348;2022-11-20T08:03:39;-5.30;99.90
18191;DHT22;47004;51.366;12.348;2022-11-20T08:05:41;-5.20;99.90
18191;DHT22;47004;51.366;12.348;2022-11-20T08:07:44;-5.20;99.90
18191;DHT22;47004;51.366;12.348;2022-11-20T08:09:46;-5.10;99.90
18191;DHT22;47004;51.366;12.348;2022-11-20T08:11:48;-5.10;99.90
18191;DHT22;47004;51.366;12.348;2022-11-20T08:14:07;-5.10;99.90
18191;DHT22;47004;51.366;12.348;2022-11-20T08:16:16;-5.10;99.90
18191;DHT22;47004;51.366;12.348;2022-11-20T08:18:18;-5.10;99.90
18191;DHT22;47004;51.366;12.348;2022-11-20T08:20:20;-5.10;99.90
18191;DHT22;47004;51.366;12.348;2022-11-20T08:22:22;-5.00;99.90
18191;DHT22;47004;51.366;12.348;2022-11-20T08:24:26;-5.00;99.90
18191;DHT22;47004;51.366;12.348;2022-11-20T08:26:28;-5.00;99.90
18191;DHT22;47004;51.366;12.348;2022-11-20T08:28:30;-5.00;99.90
18191;DHT22;47004;51.366;12.348;2022-11-20T08:30:33;-5.00;99.90
18191;DHT22;47004;51.366;12.348;2022-11-20T08:32:37;-4.90;99.90
18191;DHT22;47004;51.366;12.348;2022-11-20T08:34:39;-4.90;99.90
18191;DHT22;47004;51.366;12.348;2022-11-20T08:36:41;-4.90;99.90
18191;DHT22;47004;51.366;12.348;2022-11-20T08:38:46;-4.80;99.90
18191;DHT22;47004;51.366;12.348;2022-11-20T08:40:50;-4.70;99.90
18191;DHT22;47004;51.366;12.348;2022-11-20T08:43:06;-4.70;99.90
18191;DHT22;47004;51.366;12.348;2022-11-20T08:45:08;-4.60;99.90
18191;DHT22;47004;51.366;12.348;2022-11-20T08:47:10;-4.60;99.90
18191;DHT22;47004;51.366;12.348;2022-11-20T08:49:13;-4.60;99.90
18191;DHT22;47004;51.366;12.348;2022-11-20T08:51:16;-4.50;99.90
18191;DHT22;47004;51.366;12.348;2022-11-20T08:53:18;-4.50;99.90
18191;DHT22;47004;51.366;12.348;2022-11-20T08:55:20;-4.50;99.90
18191;DHT22;47004;51.366;12.348;2022-11-20T08:57:23;-4.40;99.90
18191;DHT22;47004;51.366;12.348;2022-11-20T08:59:25;-4.40;99.90
18191;DHT22;47004;51.366;12.348;2022-11-20T09:01:28;-4.40;99.90
18191;DHT22;47004;51.366;12.348;2022-11-20T09:03:30;-4.30;99.90
18191;DHT22;47004;51.366;12.348;2022-11-20T09:05:33;-4.30;99.90
18191;DHT22;47004;51.366;12.348;2022-11-20T09:07:35;-4.20;99.90
18191;DHT22;47004;51.366;12.348;2022-11-20T09:09:37;-4.20;99.90
18191;DHT22;47004;51.366;12.348;2022-11-20T09:11:39;-4.20;99.90
18191;DHT22;47004;51.366;12.348;2022-11-20T09:13:42;-4.10;99.90
18191;DHT22;47004;51.366;12.348;2022-11-20T09:15:44;-4.20;99.90
18191;DHT22;47004;51.366;12.348;2022-11-20T09:17:51;-4.10;99.90
18191;DHT22;47004;51.366;12.348;2022-11-20T09:19:53;-4.10;99.90
18191;DHT22;47004;51.366;12.348;2022-11-20T09:21:55;-4.10;99.90
18191;DHT22;47004;51.366;12.348;2022-11-20T09:23:57;-4.00;99.90
18191;DHT22;47004;51.366;12.348;2022-11-20T09:26:02;-4.00;99.90
18191;DHT22;47004;51.366;12.348;2022-11-20T09:28:03;-3.90;99.90
18191;DHT22;47004;51.366;12.348;2022-11-20T09:30:08;-3.80;99.90
18191;DHT22;47004;51.366;12.348;2022-11-20T09:32:10;-3.80;99.90
18191;DHT22;47004;51.366;12.348;2022-11-20T09:34:12;-3.80;99.90
18191;DHT22;47004;51.366;12.348;2022-11-20T09:36:14;-3.70;99.90
18191;DHT22;47004;51.366;12.348;2022-11-20T09:38:17;-3.70;99.90
18191;DHT22;47004;51.366;12.348;2022-11-20T09:40:21;-3.70;99.90
18191;DHT22;47004;51.366;12.348;2022-11-20T09:42:31;-3.70;99.90
18191;DHT22;47004;51.366;12.348;2022-11-20T09:44:54;-3.60;99.90
18191;DHT22;47004;51.366;12.348;2022-11-20T09:47:02;-3.60;99.90
18191;DHT22;47004;51.366;12.348;2022-11-20T09:49:21;-3.50;99.90
18191;DHT22;47004;51.366;12.348;2022-11-20T09:51:34;-3.50;99.90
18191;DHT22;47004;51.366;12.348;2022-11-20T09:53:46;-3.50;99.90
18191;DHT22;47004;51.366;12.348;2022-11-20T09:55:52;-3.50;99.90
18191;DHT22;47004;51.366;12.348;2022-11-20T09:57:54;-3.40;99.90
18191;DHT22;47004;51.366;12.348;2022-11-20T09:59:58;-3.30;99.90
18191;DHT22;47004;51.366;12.348;2022-11-20T10:02:12;-3.30;99.90
18191;DHT22;47004;51.366;12.348;2022-11-20T10:04:19;-3.20;99.90
18191;DHT22;47004;51.366;12.348;2022-11-20T10:06:27;-3.20;99.90
18191;DHT22;47004;51.366;12.348;2022-11-20T10:08:34;-3.10;99.90
18191;DHT22;47004;51.366;12.348;2022-11-20T10:10:43;-3.10;99.90
18191;DHT22;47004;51.366;12.348;2022-11-20T10:13:00;-3.00;99.90
18191;DHT22;47004;51.366;12.348;2022-11-20T10:15:14;-2.90;99.90
18191;DHT22;47004;51.366;12.348;2022-11-20T10:17:46;-2.90;99.90
18191;DHT22;47004;51.366;12.348;2022-11-20T10:20:10;-2.80;99.90
18191;DHT22;47004;51.366;12.348;2022-11-20T10:22:32;-2.60;99.90
18191;DHT22;47004;51.366;12.348;2022-11-20T10:24:43;-2.60;99.90
18191;DHT22;47004;51.366;12.348;2022-11-20T10:26:53;-2.50;99.90
18191;DHT22;47004;51.366;12.348;2022-11-20T10:29:07;-2.30;99.90
18191;DHT22;47004;51.366;12.348;2022-11-20T10:31:14;-2.30;99.90
18191;DHT22;47004;51.366;12.348;2022-11-20T10:33:23;-2.20;99.90
18191;DHT22;47004;51.366;12.348;2022-11-20T10:35:28;-2.10;99.90
18191;DHT22;47004;51.366;12.348;2022-11-20T10:37:35;-2.00;99.90
18191;DHT22;47004;51.366;12.348;2022-11-20T10:39:44;-1.90;99.90
18191;DHT22;47004;51.366;12.348;2022-11-20T10:41:51;-1.80;99.90
18191;DHT22;47004;51.366;12.348;2022-11-20T10:44:00;-1.60;99.90
18191;DHT22;47004;51.366;12.348;2022-11-20T10:46:10;-1.60;99.90
18191;DHT22;47004;51.366;12.348;2022-11-20T10:48:21;-1.50;99.90
18191;DHT22;47004;51.366;12.348;2022-11-20T10:50:25;-1.50;99.90
18191;DHT22;47004;51.366;12.348;2022-11-20T10:52:33;-1.50;99.90
18191;DHT22;47004;51.366;12.348;2022-11-20T10:54:43;-1.40;99.90
18191;DHT22;47004;51.366;12.348;2022-11-20T10:56:50;-1.40;99.90
18191;DHT22;47004;51.366;12.348;2022-11-20T10:59:03;-1.30;99.90
18191;DHT22;47004;51.366;12.348;2022-11-20T11:01:14;-1.20;99.90
18191;DHT22;47004;51.366;12.348;2022-11-20T11:03:25;-1.10;99.90
18191;DHT22;47004;51.366;12.348;2022-11-20T11:05:37;-1.10;99.90
18191;DHT22;47004;51.366;12.348;2022-11-20T11:07:41;-1.00;99.90
18191;DHT22;47004;51.366;12.348;2022-11-20T11:09:47;-0.80;99.90
18191;DHT22;47004;51.366;12.348;2022-11-20T11:11:50;-0.80;99.90
18191;DHT22;47004;51.366;12.348;2022-11-20T11:13:52;-0.80;99.90
18191;DHT22;47004;51.366;12.348;2022-11-20T11:15:54;-0.80;99.90
18191;DHT22;47004;51.366;12.348;2022-11-20T11:17:56;-0.80;99.90
18191;DHT22;47004;51.366;12.348;2022-11-20T11:20:00;-0.80;99.90
18191;DHT22;47004;51.366;12.348;2022-11-20T11:22:10;-0.80;99.90
18191;DHT22;47004;51.366;12.348;2022-11-20T11:24:21;-0.80;99.90
18191;DHT22;47004;51.366;12.348;2022-11-20T11:26:24;-0.90;99.90
18191;DHT22;47004;51.366;12.348;2022-11-20T11:28:27;-0.90;99.90
18191;DHT22;47004;51.366;12.348;2022-11-20T11:30:30;-0.90;99.90
18191;DHT22;47004;51.366;12.348;2022-11-20T11:32:41;-0.90;99.90
18191;DHT22;47004;51.366;12.348;2022-11-20T11:34:45;-0.80;99.90
18191;DHT22;47004;51.366;12.348;2022-11-20T11:36:54;-0.70;99.90
18191;DHT22;47004;51.366;12.348;2022-11-20T11:38:59;-0.50;99.90
18191;DHT22;47004;51.366;12.348;2022-11-20T11:41:01;-0.30;99.90
18191;DHT22;47004;51.366;12.348;2022-11-20T11:43:06;-0.20;99.90
18191;DHT22;47004;51.366;12.348;2022-11-20T11:45:29;-0.10;99.90
18191;DHT22;47004;51.366;12.348;2022-11-20T11:47:32;0.10;99.90
18191;DHT22;47004;51.366;12.348;2022-11-20T11:49:34;0.20;99.90
18191;DHT22;47004;51.366;12.348;2022-11-20T11:51:52;0.40;99.90
18191;DHT22;47004;51.366;12.348;2022-11-20T11:54:01;0.50;99.90
18191;DHT22;47004;51.366;12.348;2022-11-20T11:56:09;0.50;99.90
18191;DHT22;47004;51.366;12.348;2022-11-20T11:58:16;0.60;99.90
18191;DHT22;47004;51.366;12.348;2022-11-20T12:00:21;0.70;99.90
18191;DHT22;47004;51.366;12.348;2022-11-20T12:02:32;0.80;99.90
18191;DHT22;47004;51.366;12.348;2022-11-20T12:04:43;0.90;99.90
18191;DHT22;47004;51.366;12.348;2022-11-20T12:06:53;1.00;99.90
18191;DHT22;47004;51.366;12.348;2022-11-20T12:09:03;1.20;99.90
18191;DHT22;47004;51.366;12.348;2022-11-20T12:11:12;1.30;99.90
18191;DHT22;47004;51.366;12.348;2022-11-20T12:13:22;1.30;99.90
18191;DHT22;47004;51.366;12.348;2022-11-20T12:15:30;1.50;99.90
18191;DHT22;47004;51.366;12.348;2022-11-20T12:17:34;1.80;99.90
18191;DHT22;47004;51.366;12.348;2022-11-20T12:19:36;1.80;99.90
18191;DHT22;47004;51.366;12.348;2022-11-20T12:21:47;1.90;99.90
18191;DHT22;47004;51.366;12.348;2022-11-20T12:24:09;2.10;99.90
18191;DHT22;47004;51.366;12.348;2022-11-20T12:26:21;2.30;99.90
18191;DHT22;47004;51.366;12.348;2022-11-20T12:28:44;2.50;99.90
18191;DHT22;47004;51.366;12.348;2022-11-20T12:30:58;2.60;99.90
18191;DHT22;47004;51.366;12.348;2022-11-20T12:33:12;2.60;99.90
18191;DHT22;47004;51.366;12.348;2022-11-20T12:35:33;2.80;99.90
18191;DHT22;47004;51.366;12.348;2022-11-20T12:37:45;2.90;99.90
18191;DHT22;47004;51.366;12.348;2022-11-20T12:39:49;3.00;99.90
18191;DHT22;47004;51.366;12.348;2022-11-20T12:44:43;3.20;99.90
18191;DHT22;47004;51.366;12.348;2022-11-20T12:47:14;3.40;99.90
18191;DHT22;47004;51.366;12.348;2022-11-20T12:49:30;3.60;99.90
18191;DHT22;47004;51.366;12.348;2022-11-20T12:56:50;3.60;99.90
18191;DHT22;47004;51.366;12.348;2022-11-20T12:59:05;3.60;99.90
18191;DHT22;47004;51.366;12.348;2022-11-20T13:01:16;3.70;99.90
18191;DHT22;47004;51.366;12.348;2022-11-20T13:03:45;3.70;99.90
18191;DHT22;47004;51.366;12.348;2022-11-20T13:05:55;3.80;99.90